sensor_id;sensor_type;location;lat;lon;timestamp;temperature;humidity
7700;DHT22;3892;47.794;19.126;2023-02-01T00:00:28;9.90;38.80
7700;DHT22;3892;47.794;19.126;2023-02-01T00:02:55;10.00;38.00
7700;DHT22;3892;47.794;19.126;2023-02-01T00:05:22;10.00;37.80
7700;DHT22;3892;47.794;19.126;2023-02-01T00:07:49;10.00;37.70
7700;DHT22;3892;47.794;19.126;2023-02-01T00:10:17;10.00;37.60
7700;DHT22;3892;47.794;19.126;2023-02-01T00:12:44;10.00;37.60
7700;DHT22;3892;47.794;19.126;2023-02-01T00:15:11;10.10;37.60
7700;DHT22;3892;47.794;19.126;2023-02-01T00:17:39;10.10;37.50
7700;DHT22;3892;47.794;19.126;2023-02-01T00:20:08;10.20;37.60
7700;DHT22;3892;47.794;19.126;2023-02-01T00:22:35;10.20;37.60
7700;DHT22;3892;47.794;19.126;2023-02-01T00:25:03;10.20;37.50
7700;DHT22;3892;47.794;19.126;2023-02-01T00:27:30;10.30;37.40
7700;DHT22;3892;47.794;19.126;2023-02-01T00:29:57;10.40;37.50
7700;DHT22;3892;47.794;19.126;2023-02-01T00:32:24;10.50;37.30
7700;DHT22;3892;47.794;19.126;2023-02-01T00:34:53;10.50;37.20
7700;DHT22;3892;47.794;19.126;2023-02-01T00:37:20;10.60;37.20
7700;DHT22;3892;47.794;19.126;2023-02-01T00:39:47;10.60;36.90
7700;DHT22;3892;47.794;19.126;2023-02-01T00:42:15;10.70;37.00
7700;DHT22;3892;47.794;19.126;2023-02-01T00:44:42;10.60;36.70
7700;DHT22;3892;47.794;19.126;2023-02-01T00:47:09;10.70;37.00
7700;DHT22;3892;47.794;19.126;2023-02-01T00:49:37;10.80;37.10
7700;DHT22;3892;47.794;19.126;2023-02-01T00:52:05;10.80;36.80
7700;DHT22;3892;47.794;19.126;2023-02-01T00:54:33;10.80;36.80
7700;DHT22;3892;47.794;19.126;2023-02-01T00:57:01;10.80;36.70
7700;DHT22;3892;47.794;19.126;2023-02-01T00:59:28;10.70;37.20
7700;DHT22;3892;47.794;19.126;2023-02-01T01:01:55;10.80;36.90
7700;DHT22;3892;47.794;19.126;2023-02-01T01:04:22;10.80;36.70
7700;DHT22;3892;47.794;19.126;2023-02-01T01:06:49;10.80;36.60
7700;DHT22;3892;47.794;19.126;2023-02-01T01:09:18;10.80;36.70
7700;DHT22;3892;47.794;19.126;2023-02-01T01:11:46;10.80;36.70
7700;DHT22;3892;47.794;19.126;2023-02-01T01:14:13;10.80;36.70
7700;DHT22;3892;47.794;19.126;2023-02-01T01:16:40;10.90;36.80
7700;DHT22;3892;47.794;19.126;2023-02-01T01:19:07;10.90;36.90
7700;DHT22;3892;47.794;19.126;2023-02-01T01:21:35;10.80;36.70
7700;DHT22;3892;47.794;19.126;2023-02-01T01:24:02;10.90;36.90
7700;DHT22;3892;47.794;19.126;2023-02-01T01:26:31;10.80;36.70
7700;DHT22;3892;47.794;19.126;2023-02-01T01:28:59;10.80;36.90
7700;DHT22;3892;47.794;19.126;2023-02-01T01:31:27;10.80;36.80
7700;DHT22;3892;47.794;19.126;2023-02-01T01:33:56;10.80;36.80
7700;DHT22;3892;47.794;19.126;2023-02-01T01:36:25;10.80;36.90
7700;DHT22;3892;47.794;19.126;2023-02-01T01:38:52;10.70;37.00
7700;DHT22;3892;47.794;19.126;2023-02-01T01:41:21;10.70;37.00
7700;DHT22;3892;47.794;19.126;2023-02-01T01:43:56;10.70;36.90
7700;DHT22;3892;47.794;19.126;2023-02-01T01:46:26;10.70;37.00
7700;DHT22;3892;47.794;19.126;2023-02-01T01:48:58;10.50;36.90
7700;DHT22;3892;47.794;19.126;2023-02-01T01:51:28;10.60;37.20
7700;DHT22;3892;47.794;19.126;2023-02-01T01:54:00;10.60;37.10
7700;DHT22;3892;47.794;19.126;2023-02-01T01:56:31;10.50;37.10
7700;DHT22;3892;47.794;19.126;2023-02-01T01:59:00;10.50;37.20
7700;DHT22;3892;47.794;19.126;2023-02-01T02:01:28;10.50;37.30
7700;DHT22;3892;47.794;19.126;2023-02-01T02:03:56;10.30;37.20
7700;DHT22;3892;47.794;19.126;2023-02-01T02:06:39;10.20;37.30
7700;DHT22;3892;47.794;19.126;2023-02-01T02:09:07;10.20;37.50
7700;DHT22;3892;47.794;19.126;2023-02-01T02:11:34;10.20;37.60
7700;DHT22;3892;47.794;19.126;2023-02-01T02:14:04;10.10;37.50
7700;DHT22;3892;47.794;19.126;2023-02-01T02:16:41;10.10;37.50
7700;DHT22;3892;47.794;19.126;2023-02-01T02:22:46;10.20;37.80
7700;DHT22;3892;47.794;19.126;2023-02-01T02:25:51;10.10;37.60
7700;DHT22;3892;47.794;19.126;2023-02-01T02:31:36;10.00;37.70
7700;DHT22;3892;47.794;19.126;2023-02-01T02:34:14;9.90;38.50
7700;DHT22;3892;47.794;19.126;2023-02-01T02:36:53;10.00;37.90
7700;DHT22;3892;47.794;19.126;2023-02-01T02:39:32;9.90;38.80
7700;DHT22;3892;47.794;19.126;2023-02-01T02:42:05;10.00;38.10
7700;DHT22;3892;47.794;19.126;2023-02-01T02:44:57;10.10;38.20
7700;DHT22;3892;47.794;19.126;2023-02-01T02:47:50;10.00;38.00
7700;DHT22;3892;47.794;19.126;2023-02-01T02:50:24;10.10;38.00
7700;DHT22;3892;47.794;19.126;2023-02-01T02:53:13;10.10;37.90
7700;DHT22;3892;47.794;19.126;2023-02-01T02:55:59;10.10;37.80
7700;DHT22;3892;47.794;19.126;2023-02-01T02:58:46;10.10;37.70
7700;DHT22;3892;47.794;19.126;2023-02-01T03:01:32;10.10;37.80
7700;DHT22;3892;47.794;19.126;2023-02-01T03:04:16;10.00;37.70
7700;DHT22;3892;47.794;19.126;2023-02-01T03:06:47;10.00;37.80
7700;DHT22;3892;47.794;19.126;2023-02-01T03:09:21;10.10;37.80
7700;DHT22;3892;47.794;19.126;2023-02-01T03:11:51;10.10;37.80
7700;DHT22;3892;47.794;19.126;2023-02-01T03:14:37;10.10;37.60
7700;DHT22;3892;47.794;19.126;2023-02-01T03:17:11;10.10;37.60
7700;DHT22;3892;47.794;19.126;2023-02-01T03:19:42;10.10;37.60
7700;DHT22;3892;47.794;19.126;2023-02-01T03:22:17;10.10;37.60
7700;DHT22;3892;47.794;19.126;2023-02-01T03:24:49;10.10;37.70
7700;DHT22;3892;47.794;19.126;2023-02-01T03:27:21;10.10;37.60
7700;DHT22;3892;47.794;19.126;2023-02-01T03:29:54;10.20;37.70
7700;DHT22;3892;47.794;19.126;2023-02-01T03:32:23;10.20;37.60
7700;DHT22;3892;47.794;19.126;2023-02-01T03:34:50;10.10;37.50
7700;DHT22;3892;47.794;19.126;2023-02-01T03:37:23;10.20;37.60
7700;DHT22;3892;47.794;19.126;2023-02-01T03:39:56;10.20;37.60
7700;DHT22;3892;47.794;19.126;2023-02-01T03:42:28;10.20;37.60
7700;DHT22;3892;47.794;19.126;2023-02-01T03:45:03;10.30;37.60
7700;DHT22;3892;47.794;19.126;2023-02-01T03:47:35;10.20;37.70
7700;DHT22;3892;47.794;19.126;2023-02-01T03:50:06;10.10;37.60
7700;DHT22;3892;47.794;19.126;2023-02-01T03:52:39;10.20;37.70
7700;DHT22;3892;47.794;19.126;2023-02-01T03:55:08;10.10;37.60
7700;DHT22;3892;47.794;19.126;2023-02-01T03:57:38;10.10;37.60
7700;DHT22;3892;47.794;19.126;2023-02-01T04:00:09;10.10;37.50
7700;DHT22;3892;47.794;19.126;2023-02-01T04:02:40;10.00;37.40
7700;DHT22;3892;47.794;19.126;2023-02-01T04:05:08;10.00;37.60
7700;DHT22;3892;47.794;19.126;2023-02-01T04:07:38;10.10;37.60
7700;DHT22;3892;47.794;19.126;2023-02-01T04:10:06;10.00;37.60
7700;DHT22;3892;47.794;19.126;2023-02-01T04:12:33;10.00;37.70
7700;DHT22;3892;47.794;19.126;2023-02-01T04:15:01;10.00;37.70
7700;DHT22;3892;47.794;19.126;2023-02-01T04:17:29;10.00;37.70
7700;DHT22;3892;47.794;19.126;2023-02-01T04:19:56;9.90;38.40
7700;DHT22;3892;47.794;19.126;2023-02-01T04:22:23;9.90;38.60
7700;DHT22;3892;47.794;19.126;2023-02-01T04:24:51;9.80;38.60
7700;DHT22;3892;47.794;19.126;2023-02-01T04:27:18;9.80;38.80
7700;DHT22;3892;47.794;19.126;2023-02-01T04:29:45;9.80;38.80
7700;DHT22;3892;47.794;19.126;2023-02-01T04:32:15;9.80;38.80
7700;DHT22;3892;47.794;19.126;2023-02-01T04:34:42;9.90;38.80
7700;DHT22;3892;47.794;19.126;2023-02-01T04:37:09;9.80;38.70
7700;DHT22;3892;47.794;19.126;2023-02-01T04:39:36;9.90;38.70
7700;DHT22;3892;47.794;19.126;2023-02-01T04:42:04;9.80;38.60
7700;DHT22;3892;47.794;19.126;2023-02-01T04:44:31;9.80;38.60
7700;DHT22;3892;47.794;19.126;2023-02-01T04:46:58;9.70;38.70
7700;DHT22;3892;47.794;19.126;2023-02-01T04:49:25;9.70;38.70
7700;DHT22;3892;47.794;19.126;2023-02-01T04:51:53;9.60;38.70
7700;DHT22;3892;47.794;19.126;2023-02-01T04:54:20;9.70;38.90
7700;DHT22;3892;47.794;19.126;2023-02-01T04:56:47;9.60;38.80
7700;DHT22;3892;47.794;19.126;2023-02-01T04:59:15;9.60;38.90
7700;DHT22;3892;47.794;19.126;2023-02-01T05:01:42;9.60;38.90
7700;DHT22;3892;47.794;19.126;2023-02-01T05:04:09;9.40;38.80
7700;DHT22;3892;47.794;19.126;2023-02-01T05:06:36;9.50;39.00
7700;DHT22;3892;47.794;19.126;2023-02-01T05:09:03;9.50;38.90
7700;DHT22;3892;47.794;19.126;2023-02-01T05:11:30;9.60;39.10
7700;DHT22;3892;47.794;19.126;2023-02-01T05:14:16;9.60;39.00
7700;DHT22;3892;47.794;19.126;2023-02-01T05:16:43;9.60;38.90
7700;DHT22;3892;47.794;19.126;2023-02-01T05:19:10;9.70;39.00
7700;DHT22;3892;47.794;19.126;2023-02-01T05:21:37;9.60;38.80
7700;DHT22;3892;47.794;19.126;2023-02-01T05:24:04;9.70;38.80
7700;DHT22;3892;47.794;19.126;2023-02-01T05:26:39;9.60;38.80
7700;DHT22;3892;47.794;19.126;2023-02-01T05:29:07;9.70;38.80
7700;DHT22;3892;47.794;19.126;2023-02-01T05:31:36;9.80;38.80
7700;DHT22;3892;47.794;19.126;2023-02-01T05:34:04;9.80;38.60
7700;DHT22;3892;47.794;19.126;2023-02-01T05:36:31;9.80;38.60
7700;DHT22;3892;47.794;19.126;2023-02-01T05:38:58;9.80;38.50
7700;DHT22;3892;47.794;19.126;2023-02-01T05:41:25;9.90;38.50
7700;DHT22;3892;47.794;19.126;2023-02-01T05:43:52;9.90;38.50
7700;DHT22;3892;47.794;19.126;2023-02-01T05:46:19;9.90;38.50
7700;DHT22;3892;47.794;19.126;2023-02-01T05:48:48;9.90;38.50
7700;DHT22;3892;47.794;19.126;2023-02-01T05:51:15;9.90;38.50
7700;DHT22;3892;47.794;19.126;2023-02-01T05:53:42;9.90;38.60
7700;DHT22;3892;47.794;19.126;2023-02-01T05:56:09;9.90;39.20
7700;DHT22;3892;47.794;19.126;2023-02-01T05:58:36;9.90;38.60
7700;DHT22;3892;47.794;19.126;2023-02-01T06:01:03;9.80;38.60
7700;DHT22;3892;47.794;19.126;2023-02-01T06:03:30;9.80;38.60
7700;DHT22;3892;47.794;19.126;2023-02-01T06:05:59;9.80;38.70
7700;DHT22;3892;47.794;19.126;2023-02-01T06:08:26;9.80;38.70
7700;DHT22;3892;47.794;19.126;2023-02-01T06:10:58;9.80;38.70
7700;DHT22;3892;47.794;19.126;2023-02-01T06:13:25;9.80;38.70
7700;DHT22;3892;47.794;19.126;2023-02-01T06:15:52;9.90;38.80
7700;DHT22;3892;47.794;19.126;2023-02-01T06:18:19;9.80;38.60
7700;DHT22;3892;47.794;19.126;2023-02-01T06:20:52;9.80;38.60
7700;DHT22;3892;47.794;19.126;2023-02-01T06:23:20;9.70;38.50
7700;DHT22;3892;47.794;19.126;2023-02-01T06:25:50;9.80;38.70
7700;DHT22;3892;47.794;19.126;2023-02-01T06:28:17;9.80;38.70
7700;DHT22;3892;47.794;19.126;2023-02-01T06:30:45;9.80;38.60
7700;DHT22;3892;47.794;19.126;2023-02-01T06:33:13;9.90;38.80
7700;DHT22;3892;47.794;19.126;2023-02-01T06:35:41;9.90;38.70
7700;DHT22;3892;47.794;19.126;2023-02-01T06:38:12;9.90;38.60
7700;DHT22;3892;47.794;19.126;2023-02-01T06:40:41;10.00;37.80
7700;DHT22;3892;47.794;19.126;2023-02-01T06:43:09;10.00;38.30
7700;DHT22;3892;47.794;19.126;2023-02-01T06:45:36;10.00;37.70
7700;DHT22;3892;47.794;19.126;2023-02-01T06:48:04;10.10;37.80
7700;DHT22;3892;47.794;19.126;2023-02-01T06:50:32;10.00;37.70
7700;DHT22;3892;47.794;19.126;2023-02-01T06:53:00;10.10;37.70
7700;DHT22;3892;47.794;19.126;2023-02-01T06:55:27;10.10;37.80
7700;DHT22;3892;47.794;19.126;2023-02-01T06:57:56;10.10;37.70
7700;DHT22;3892;47.794;19.126;2023-02-01T07:00:23;10.10;37.80
7700;DHT22;3892;47.794;19.126;2023-02-01T07:02:50;10.20;37.80
7700;DHT22;3892;47.794;19.126;2023-02-01T07:05:17;10.20;37.70
7700;DHT22;3892;47.794;19.126;2023-02-01T07:07:45;10.20;37.70
7700;DHT22;3892;47.794;19.126;2023-02-01T07:10:14;10.30;37.80
7700;DHT22;3892;47.794;19.126;2023-02-01T07:12:46;10.30;37.70
7700;DHT22;3892;47.794;19.126;2023-02-01T07:15:16;10.30;37.80
7700;DHT22;3892;47.794;19.126;2023-02-01T07:17:43;10.30;37.70
7700;DHT22;3892;47.794;19.126;2023-02-01T07:20:11;10.40;37.80
7700;DHT22;3892;47.794;19.126;2023-02-01T07:22:38;10.40;37.80
7700;DHT22;3892;47.794;19.126;2023-02-01T07:25:06;10.50;37.90
7700;DHT22;3892;47.794;19.126;2023-02-01T07:27:34;10.60;37.90
7700;DHT22;3892;47.794;19.126;2023-02-01T07:30:01;10.60;37.70
7700;DHT22;3892;47.794;19.126;2023-02-01T07:32:30;10.60;37.70
7700;DHT22;3892;47.794;19.126;2023-02-01T07:35:00;10.60;37.60
7700;DHT22;3892;47.794;19.126;2023-02-01T07:37:27;10.70;37.80
7700;DHT22;3892;47.794;19.126;2023-02-01T07:39:55;10.80;37.70
7700;DHT22;3892;47.794;19.126;2023-02-01T07:42:24;10.90;37.70
7700;DHT22;3892;47.794;19.126;2023-02-01T07:44:54;10.90;37.50
7700;DHT22;3892;47.794;19.126;2023-02-01T07:47:23;10.90;37.30
7700;DHT22;3892;47.794;19.126;2023-02-01T07:49:52;11.00;37.40
7700;DHT22;3892;47.794;19.126;2023-02-01T07:52:19;11.00;37.30
7700;DHT22;3892;47.794;19.126;2023-02-01T07:54:46;11.00;37.20
7700;DHT22;3892;47.794;19.126;2023-02-01T07:57:13;11.00;37.30
7700;DHT22;3892;47.794;19.126;2023-02-01T07:59:40;11.10;37.20
7700;DHT22;3892;47.794;19.126;2023-02-01T08:02:27;11.10;37.10
7700;DHT22;3892;47.794;19.126;2023-02-01T08:04:58;11.20;37.30
7700;DHT22;3892;47.794;19.126;2023-02-01T08:07:25;11.20;37.10
7700;DHT22;3892;47.794;19.126;2023-02-01T08:09:55;11.20;36.90
7700;DHT22;3892;47.794;19.126;2023-02-01T08:12:28;11.20;37.10
7700;DHT22;3892;47.794;19.126;2023-02-01T08:14:55;11.30;37.00
7700;DHT22;3892;47.794;19.126;2023-02-01T08:17:22;11.30;36.90
7700;DHT22;3892;47.794;19.126;2023-02-01T08:19:49;11.30;36.80
7700;DHT22;3892;47.794;19.126;2023-02-01T08:22:17;11.30;36.80
7700;DHT22;3892;47.794;19.126;2023-02-01T08:24:47;11.30;36.90
7700;DHT22;3892;47.794;19.126;2023-02-01T08:27:15;11.30;36.90
7700;DHT22;3892;47.794;19.126;2023-02-01T08:29:43;11.30;36.90
7700;DHT22;3892;47.794;19.126;2023-02-01T08:32:10;11.40;37.00
7700;DHT22;3892;47.794;19.126;2023-02-01T08:34:42;11.40;36.80
7700;DHT22;3892;47.794;19.126;2023-02-01T08:37:10;11.40;36.60
7700;DHT22;3892;47.794;19.126;2023-02-01T08:39:38;11.30;36.50
7700;DHT22;3892;47.794;19.126;2023-02-01T08:42:05;11.40;36.60
7700;DHT22;3892;47.794;19.126;2023-02-01T08:44:50;11.50;36.50
7700;DHT22;3892;47.794;19.126;2023-02-01T08:47:17;11.40;36.10
7700;DHT22;3892;47.794;19.126;2023-02-01T08:49:44;11.50;36.10
7700;DHT22;3892;47.794;19.126;2023-02-01T08:52:12;11.40;36.00
7700;DHT22;3892;47.794;19.126;2023-02-01T08:54:40;11.50;36.10
7700;DHT22;3892;47.794;19.126;2023-02-01T08:57:07;11.40;36.10
7700;DHT22;3892;47.794;19.126;2023-02-01T08:59:35;11.50;36.20
7700;DHT22;3892;47.794;19.126;2023-02-01T09:02:02;11.60;35.90
7700;DHT22;3892;47.794;19.126;2023-02-01T09:04:29;11.70;35.80
7700;DHT22;3892;47.794;19.126;2023-02-01T09:06:56;11.80;35.60
7700;DHT22;3892;47.794;19.126;2023-02-01T09:09:23;11.90;35.50
7700;DHT22;3892;47.794;19.126;2023-02-01T09:11:51;11.70;35.30
7700;DHT22;3892;47.794;19.126;2023-02-01T09:14:18;11.70;35.30
7700;DHT22;3892;47.794;19.126;2023-02-01T09:16:45;11.80;35.40
7700;DHT22;3892;47.794;19.126;2023-02-01T09:19:12;11.80;35.40
7700;DHT22;3892;47.794;19.126;2023-02-01T09:21:39;11.70;35.40
7700;DHT22;3892;47.794;19.126;2023-02-01T09:24:08;11.80;35.70
7700;DHT22;3892;47.794;19.126;2023-02-01T09:26:36;11.70;35.60
7700;DHT22;3892;47.794;19.126;2023-02-01T09:29:05;11.60;36.20
7700;DHT22;3892;47.794;19.126;2023-02-01T09:31:36;11.60;36.20
7700;DHT22;3892;47.794;19.126;2023-02-01T09:34:04;11.60;36.60
7700;DHT22;3892;47.794;19.126;2023-02-01T09:36:31;11.50;36.70
7700;DHT22;3892;47.794;19.126;2023-02-01T09:38:58;11.50;36.90
7700;DHT22;3892;47.794;19.126;2023-02-01T09:41:42;11.60;37.30
7700;DHT22;3892;47.794;19.126;2023-02-01T09:44:24;12.00;37.60
7700;DHT22;3892;47.794;19.126;2023-02-01T09:46:58;12.40;37.40
7700;DHT22;3892;47.794;19.126;2023-02-01T09:49:29;12.90;37.10
7700;DHT22;3892;47.794;19.126;2023-02-01T09:51:59;13.40;36.70
7700;DHT22;3892;47.794;19.126;2023-02-01T09:54:33;13.60;36.10
7700;DHT22;3892;47.794;19.126;2023-02-01T09:57:05;14.10;35.60
7700;DHT22;3892;47.794;19.126;2023-02-01T09:59:39;14.70;35.20
7700;DHT22;3892;47.794;19.126;2023-02-01T10:02:13;15.20;34.70
7700;DHT22;3892;47.794;19.126;2023-02-01T10:04:41;15.10;34.10
7700;DHT22;3892;47.794;19.126;2023-02-01T10:07:17;15.10;33.90
7700;DHT22;3892;47.794;19.126;2023-02-01T10:09:56;15.10;34.20
7700;DHT22;3892;47.794;19.126;2023-02-01T10:12:49;14.50;33.10
7700;DHT22;3892;47.794;19.126;2023-02-01T10:15:33;14.70;33.90
7700;DHT22;3892;47.794;19.126;2023-02-01T10:18:27;14.60;33.90
7700;DHT22;3892;47.794;19.126;2023-02-01T10:21:02;14.70;33.50
7700;DHT22;3892;47.794;19.126;2023-02-01T10:23:48;15.30;34.20
7700;DHT22;3892;47.794;19.126;2023-02-01T10:26:19;15.30;33.40
7700;DHT22;3892;47.794;19.126;2023-02-01T10:28:50;15.30;33.00
7700;DHT22;3892;47.794;19.126;2023-02-01T10:31:21;15.50;32.80
7700;DHT22;3892;47.794;19.126;2023-02-01T10:33:52;15.90;32.90
7700;DHT22;3892;47.794;19.126;2023-02-01T10:36:27;16.20;32.50
7700;DHT22;3892;47.794;19.126;2023-02-01T10:38:55;16.30;32.00
7700;DHT22;3892;47.794;19.126;2023-02-01T10:41:26;16.70;32.30
7700;DHT22;3892;47.794;19.126;2023-02-01T10:43:58;16.80;33.00
7700;DHT22;3892;47.794;19.126;2023-02-01T10:46:29;17.20;31.60
7700;DHT22;3892;47.794;19.126;2023-02-01T10:48:58;17.30;31.00
7700;DHT22;3892;47.794;19.126;2023-02-01T10:51:29;17.50;30.90
7700;DHT22;3892;47.794;19.126;2023-02-01T10:54:01;17.80;31.50
7700;DHT22;3892;47.794;19.126;2023-02-01T10:56:30;17.90;30.90
7700;DHT22;3892;47.794;19.126;2023-02-01T10:59:01;17.80;30.40
7700;DHT22;3892;47.794;19.126;2023-02-01T11:01:33;18.10;31.00
7700;DHT22;3892;47.794;19.126;2023-02-01T11:04:01;18.50;31.10
7700;DHT22;3892;47.794;19.126;2023-02-01T11:06:31;19.10;30.90
7700;DHT22;3892;47.794;19.126;2023-02-01T11:09:11;19.30;30.20
7700;DHT22;3892;47.794;19.126;2023-02-01T11:11:55;19.50;30.00
7700;DHT22;3892;47.794;19.126;2023-02-01T11:14:28;19.30;29.70
7700;DHT22;3892;47.794;19.126;2023-02-01T11:17:02;18.70;29.70
7700;DHT22;3892;47.794;19.126;2023-02-01T11:19:29;18.10;29.90
7700;DHT22;3892;47.794;19.126;2023-02-01T11:21:59;17.60;30.80
7700;DHT22;3892;47.794;19.126;2023-02-01T11:24:28;17.10;31.10
7700;DHT22;3892;47.794;19.126;2023-02-01T11:26:57;16.70;31.50
7700;DHT22;3892;47.794;19.126;2023-02-01T11:29:26;16.40;32.20
7700;DHT22;3892;47.794;19.126;2023-02-01T11:31:57;16.10;32.40
7700;DHT22;3892;47.794;19.126;2023-02-01T11:34:30;15.80;32.60
7700;DHT22;3892;47.794;19.126;2023-02-01T11:37:00;15.50;33.10
7700;DHT22;3892;47.794;19.126;2023-02-01T11:39:30;15.20;33.50
7700;DHT22;3892;47.794;19.126;2023-02-01T11:42:01;15.00;34.30
7700;DHT22;3892;47.794;19.126;2023-02-01T11:44:33;14.50;34.20
7700;DHT22;3892;47.794;19.126;2023-02-01T11:47:19;14.30;35.00
7700;DHT22;3892;47.794;19.126;2023-02-01T11:49:49;14.10;35.80
7700;DHT22;3892;47.794;19.126;2023-02-01T11:52:32;13.90;36.30
7700;DHT22;3892;47.794;19.126;2023-02-01T11:58:27;13.70;37.40
7700;DHT22;3892;47.794;19.126;2023-02-01T12:01:20;13.40;37.20
7700;DHT22;3892;47.794;19.126;2023-02-01T12:04:13;13.40;37.90
7700;DHT22;3892;47.794;19.126;2023-02-01T12:06:52;13.30;38.30
7700;DHT22;3892;47.794;19.126;2023-02-01T12:09:42;13.10;38.50
7700;DHT22;3892;47.794;19.126;2023-02-01T12:12:19;13.10;38.90
7700;DHT22;3892;47.794;19.126;2023-02-01T12:15:19;13.00;38.60
7700;DHT22;3892;47.794;19.126;2023-02-01T12:18:01;12.90;39.10
7700;DHT22;3892;47.794;19.126;2023-02-01T12:23:35;12.80;39.30
7700;DHT22;3892;47.794;19.126;2023-02-01T12:26:18;12.70;39.70
7700;DHT22;3892;47.794;19.126;2023-02-01T12:32:11;12.70;39.80
7700;DHT22;3892;47.794;19.126;2023-02-01T12:35:01;12.60;39.60
7700;DHT22;3892;47.794;19.126;2023-02-01T12:37:48;12.50;39.80
7700;DHT22;3892;47.794;19.126;2023-02-01T12:40:32;12.50;40.10
7700;DHT22;3892;47.794;19.126;2023-02-01T12:43:07;12.50;40.50
7700;DHT22;3892;47.794;19.126;2023-02-01T12:45:40;12.50;40.60
7700;DHT22;3892;47.794;19.126;2023-02-01T12:48:22;12.50;40.30
7700;DHT22;3892;47.794;19.126;2023-02-01T12:50:54;12.50;41.90
7700;DHT22;3892;47.794;19.126;2023-02-01T12:53:30;12.40;41.30
7700;DHT22;3892;47.794;19.126;2023-02-01T12:56:03;12.50;43.00
7700;DHT22;3892;47.794;19.126;2023-02-01T12:58:40;12.40;43.10
7700;DHT22;3892;47.794;19.126;2023-02-01T13:01:12;12.40;45.00
7700;DHT22;3892;47.794;19.126;2023-02-01T13:03:48;12.00;44.20
7700;DHT22;3892;47.794;19.126;2023-02-01T13:06:21;11.90;41.40
7700;DHT22;3892;47.794;19.126;2023-02-01T13:08:53;11.80;41.50
7700;DHT22;3892;47.794;19.126;2023-02-01T13:11:27;11.80;41.90
7700;DHT22;3892;47.794;19.126;2023-02-01T13:14:01;11.90;42.00
7700;DHT22;3892;47.794;19.126;2023-02-01T13:16:31;12.00;41.90
7700;DHT22;3892;47.794;19.126;2023-02-01T13:19:06;12.00;42.00
7700;DHT22;3892;47.794;19.126;2023-02-01T13:21:40;12.10;41.90
7700;DHT22;3892;47.794;19.126;2023-02-01T13:24:20;12.00;41.80
7700;DHT22;3892;47.794;19.126;2023-02-01T13:26:53;11.90;41.90
7700;DHT22;3892;47.794;19.126;2023-02-01T13:29:22;11.80;42.00
7700;DHT22;3892;47.794;19.126;2023-02-01T13:32:10;11.50;41.50
7700;DHT22;3892;47.794;19.126;2023-02-01T13:35:18;11.30;41.90
7700;DHT22;3892;47.794;19.126;2023-02-01T13:38:11;11.40;42.20
7700;DHT22;3892;47.794;19.126;2023-02-01T13:40:44;11.50;42.50
7700;DHT22;3892;47.794;19.126;2023-02-01T13:43:19;11.60;42.30
7700;DHT22;3892;47.794;19.126;2023-02-01T13:45:50;11.70;41.90
7700;DHT22;3892;47.794;19.126;2023-02-01T13:48:24;11.80;41.70
7700;DHT22;3892;47.794;19.126;2023-02-01T13:50:55;11.60;41.80
7700;DHT22;3892;47.794;19.126;2023-02-01T13:53:28;11.50;42.10
7700;DHT22;3892;47.794;19.126;2023-02-01T13:56:00;11.40;43.00
7700;DHT22;3892;47.794;19.126;2023-02-01T13:58:33;11.20;42.60
7700;DHT22;3892;47.794;19.126;2023-02-01T14:01:33;11.20;42.30
7700;DHT22;3892;47.794;19.126;2023-02-01T14:04:01;10.60;42.00
7700;DHT22;3892;47.794;19.126;2023-02-01T14:06:39;10.50;41.60
7700;DHT22;3892;47.794;19.126;2023-02-01T14:09:13;10.40;41.90
7700;DHT22;3892;47.794;19.126;2023-02-01T14:11:44;10.30;42.20
7700;DHT22;3892;47.794;19.126;2023-02-01T14:14:44;10.40;42.30
7700;DHT22;3892;47.794;19.126;2023-02-01T14:17:38;10.50;42.20
7700;DHT22;3892;47.794;19.126;2023-02-01T14:20:38;10.60;42.40
7700;DHT22;3892;47.794;19.126;2023-02-01T14:23:12;10.80;42.10
7700;DHT22;3892;47.794;19.126;2023-02-01T14:25:41;10.90;41.80
7700;DHT22;3892;47.794;19.126;2023-02-01T14:28:19;11.00;43.60
7700;DHT22;3892;47.794;19.126;2023-02-01T14:30:50;11.10;42.20
7700;DHT22;3892;47.794;19.126;2023-02-01T14:33:21;11.30;41.70
7700;DHT22;3892;47.794;19.126;2023-02-01T14:36:02;11.50;41.50
7700;DHT22;3892;47.794;19.126;2023-02-01T14:38:31;11.50;40.70
7700;DHT22;3892;47.794;19.126;2023-02-01T14:41:17;11.60;40.20
7700;DHT22;3892;47.794;19.126;2023-02-01T14:43:50;11.70;40.40
7700;DHT22;3892;47.794;19.126;2023-02-01T14:46:19;11.70;40.00
7700;DHT22;3892;47.794;19.126;2023-02-01T14:48:47;11.70;40.40
7700;DHT22;3892;47.794;19.126;2023-02-01T14:51:16;11.70;40.10
7700;DHT22;3892;47.794;19.126;2023-02-01T14:53:44;11.70;39.70
7700;DHT22;3892;47.794;19.126;2023-02-01T14:56:14;11.60;39.50
7700;DHT22;3892;47.794;19.126;2023-02-01T14:58:45;11.70;39.90
7700;DHT22;3892;47.794;19.126;2023-02-01T15:01:20;11.70;39.90
7700;DHT22;3892;47.794;19.126;2023-02-01T15:03:52;11.60;39.80
7700;DHT22;3892;47.794;19.126;2023-02-01T15:06:24;11.50;39.50
7700;DHT22;3892;47.794;19.126;2023-02-01T15:08:55;11.50;39.60
7700;DHT22;3892;47.794;19.126;2023-02-01T15:11:22;11.30;39.80
7700;DHT22;3892;47.794;19.126;2023-02-01T15:13:50;11.30;40.00
7700;DHT22;3892;47.794;19.126;2023-02-01T15:16:22;11.40;40.10
7700;DHT22;3892;47.794;19.126;2023-02-01T15:18:49;11.40;39.90
7700;DHT22;3892;47.794;19.126;2023-02-01T15:21:20;11.30;39.70
7700;DHT22;3892;47.794;19.126;2023-02-01T15:23:48;11.30;39.80
7700;DHT22;3892;47.794;19.126;2023-02-01T15:26:26;11.20;40.20
7700;DHT22;3892;47.794;19.126;2023-02-01T15:28:55;11.20;40.50
7700;DHT22;3892;47.794;19.126;2023-02-01T15:31:36;11.20;40.50
7700;DHT22;3892;47.794;19.126;2023-02-01T15:34:04;11.20;40.60
7700;DHT22;3892;47.794;19.126;2023-02-01T15:36:31;11.20;40.80
7700;DHT22;3892;47.794;19.126;2023-02-01T15:39:13;11.20;40.70
7700;DHT22;3892;47.794;19.126;2023-02-01T15:41:45;11.20;41.00
7700;DHT22;3892;47.794;19.126;2023-02-01T15:44:21;11.10;40.90
7700;DHT22;3892;47.794;19.126;2023-02-01T15:46:55;11.00;41.10
7700;DHT22;3892;47.794;19.126;2023-02-01T15:49:26;10.90;40.80
7700;DHT22;3892;47.794;19.126;2023-02-01T15:51:54;10.90;41.00
7700;DHT22;3892;47.794;19.126;2023-02-01T15:54:26;11.00;41.10
7700;DHT22;3892;47.794;19.126;2023-02-01T15:56:54;10.60;41.00
7700;DHT22;3892;47.794;19.126;2023-02-01T15:59:23;10.80;41.20
7700;DHT22;3892;47.794;19.126;2023-02-01T16:01:51;10.90;41.20
7700;DHT22;3892;47.794;19.126;2023-02-01T16:04:21;10.90;41.20
7700;DHT22;3892;47.794;19.126;2023-02-01T16:06:51;10.80;41.10
7700;DHT22;3892;47.794;19.126;2023-02-01T16:09:21;10.90;41.30
7700;DHT22;3892;47.794;19.126;2023-02-01T16:11:55;10.80;41.30
7700;DHT22;3892;47.794;19.126;2023-02-01T16:14:23;10.80;41.30
7700;DHT22;3892;47.794;19.126;2023-02-01T16:16:52;10.80;41.40
7700;DHT22;3892;47.794;19.126;2023-02-01T16:19:20;10.80;41.60
7700;DHT22;3892;47.794;19.126;2023-02-01T16:21:49;10.70;41.60
7700;DHT22;3892;47.794;19.126;2023-02-01T16:24:17;10.70;42.60
7700;DHT22;3892;47.794;19.126;2023-02-01T16:26:44;10.80;42.20
7700;DHT22;3892;47.794;19.126;2023-02-01T16:29:11;10.80;42.20
7700;DHT22;3892;47.794;19.126;2023-02-01T16:31:38;10.60;42.20